< Typhoon 195514 1955 Season Typhoon 195516 >
Typhoon 195515 (NO-NAME)
General InformationTrack Information on Google Maps || NewsDisaster Info.ResourceGoogle EarthGE AnimationAtom FeedGeoJSON
Detalied Best Track (Time Zone = UTC)
Year Month Day Hour Lat. Long. Pressure (hPa) Wind (kt) Class Image Chart
1955 8 2 00 16.0 134.0 1008 0 2 -- Chart
1955 8 2 06 16.8 133.9 1006 0 2 -- Chart
1955 8 2 12 17.5 133.7 1006 0 2 -- Chart
1955 8 2 18 18.0 133.4 1006 0 2 -- Chart
1955 8 3 00 18.4 132.9 1006 0 2 -- Chart
1955 8 3 06 18.5 131.9 1004 0 2 -- Chart
1955 8 3 12 18.5 130.9 1004 0 2 -- Chart
1955 8 3 18 18.5 130.2 1002 0 2 -- Chart
1955 8 4 00 18.5 129.8 1002 0 2 -- Chart
1955 8 4 06 18.5 129.4 1002 0 2 -- Chart
1955 8 4 12 18.5 128.9 1002 0 2 -- Chart
1955 8 4 18 18.5 128.4 1002 0 2 -- Chart
1955 8 5 00 18.5 128.0 1000 0 2 -- Chart
1955 8 5 06 18.5 127.5 995 0 9 -- Chart
1955 8 5 12 18.5 127.0 995 0 9 -- Chart
1955 8 5 18 18.5 126.5 998 0 9 -- Chart
1955 8 6 00 18.5 126.0 1000 0 9 -- Chart
1955 8 6 06 18.4 125.5 1000 0 9 -- Chart
1955 8 6 12 18.8 125.4 1000 0 9 -- Chart
1955 8 6 18 19.5 125.6 1002 0 2 -- Chart
1955 8 7 00 21.0 126.0 1006 0 2 -- Chart
Japan Meteorological Agency Best Track Data | Correction Date : 1989-06-01
< Typhoon 195514 1955 Season Typhoon 195516 >

Help